sensor_id;sensor_type;location;lat;lon;timestamp;pressure;altitude;pressure_sealevel;temperature;humidity
80198;BME280;69517;52.030;7.106;2023-05-07T00:02:02;100789.28;;;21.88;71.95
80198;BME280;69517;52.030;7.106;2023-05-07T00:04:29;100786.16;;;21.83;72.02
80198;BME280;69517;52.030;7.106;2023-05-07T00:07:00;100791.41;;;21.83;72.57
80198;BME280;69517;52.030;7.106;2023-05-07T00:09:27;100782.13;;;21.90;71.84
80198;BME280;69517;52.030;7.106;2023-05-07T00:11:53;100792.03;;;21.86;71.56
80198;BME280;69517;52.030;7.106;2023-05-07T00:14:20;100795.00;;;21.82;72.33
80198;BME280;69517;52.030;7.106;2023-05-07T00:16:47;100795.41;;;21.89;71.42
80198;BME280;69517;52.030;7.106;2023-05-07T00:19:13;100800.97;;;21.84;72.42
80198;BME280;69517;52.030;7.106;2023-05-07T00:21:39;100797.72;;;21.80;72.12
80198;BME280;69517;52.030;7.106;2023-05-07T00:24:06;100797.50;;;21.83;71.88
80198;BME280;69517;52.030;7.106;2023-05-07T00:26:32;100795.94;;;21.81;72.05
80198;BME280;69517;52.030;7.106;2023-05-07T00:28:58;100792.03;;;21.86;71.42
80198;BME280;69517;52.030;7.106;2023-05-07T00:31:26;100798.97;;;21.88;71.43
80198;BME280;69517;52.030;7.106;2023-05-07T00:33:52;100805.28;;;21.85;71.72
80198;BME280;69517;52.030;7.106;2023-05-07T00:36:18;100793.63;;;21.89;71.75
80198;BME280;69517;52.030;7.106;2023-05-07T00:38:45;100791.63;;;21.80;72.27
80198;BME280;69517;52.030;7.106;2023-05-07T00:41:11;100792.56;;;21.79;72.40
80198;BME280;69517;52.030;7.106;2023-05-07T00:43:37;100791.84;;;21.77;72.29
80198;BME280;69517;52.030;7.106;2023-05-07T00:46:03;100788.47;;;21.75;72.68
80198;BME280;69517;52.030;7.106;2023-05-07T00:48:31;100797.63;;;21.82;72.15
80198;BME280;69517;52.030;7.106;2023-05-07T00:50:58;100789.09;;;21.78;71.83
80198;BME280;69517;52.030;7.106;2023-05-07T00:53:24;100788.97;;;21.80;71.95
80198;BME280;69517;52.030;7.106;2023-05-07T00:55:51;100784.75;;;21.77;72.48
80198;BME280;69517;52.030;7.106;2023-05-07T00:58:18;100777.50;;;21.81;71.61
80198;BME280;69517;52.030;7.106;2023-05-07T01:00:45;100778.47;;;21.80;71.72
80198;BME280;69517;52.030;7.106;2023-05-07T01:03:11;100780.56;;;21.75;71.99
80198;BME280;69517;52.030;7.106;2023-05-07T01:05:39;100787.41;;;21.77;71.89
80198;BME280;69517;52.030;7.106;2023-05-07T01:08:05;100779.63;;;21.76;71.86
80198;BME280;69517;52.030;7.106;2023-05-07T01:10:32;100779.81;;;21.73;72.28
80198;BME280;69517;52.030;7.106;2023-05-07T01:12:58;100769.94;;;21.76;72.20
80198;BME280;69517;52.030;7.106;2023-05-07T01:15:25;100770.56;;;21.80;71.71
80198;BME280;69517;52.030;7.106;2023-05-07T01:17:51;100769.09;;;21.76;72.18
80198;BME280;69517;52.030;7.106;2023-05-07T01:20:17;100755.81;;;21.77;71.94
80198;BME280;69517;52.030;7.106;2023-05-07T01:22:45;100759.41;;;21.76;71.91
80198;BME280;69517;52.030;7.106;2023-05-07T01:25:12;100763.59;;;21.79;71.63
80198;BME280;69517;52.030;7.106;2023-05-07T01:27:41;100768.97;;;21.77;72.03
80198;BME280;69517;52.030;7.106;2023-05-07T01:30:07;100759.19;;;21.79;71.75
80198;BME280;69517;52.030;7.106;2023-05-07T01:32:35;100760.03;;;21.80;71.60
80198;BME280;69517;52.030;7.106;2023-05-07T01:35:05;100760.38;;;21.75;71.87
80198;BME280;69517;52.030;7.106;2023-05-07T01:37:33;100761.22;;;21.76;71.80
80198;BME280;69517;52.030;7.106;2023-05-07T01:40:01;100754.25;;;21.75;72.02
80198;BME280;69517;52.030;7.106;2023-05-07T01:42:28;100750.88;;;21.73;71.93
80198;BME280;69517;52.030;7.106;2023-05-07T01:44:55;100755.94;;;21.76;71.76
80198;BME280;69517;52.030;7.106;2023-05-07T01:47:21;100753.50;;;21.73;71.99
80198;BME280;69517;52.030;7.106;2023-05-07T01:49:48;100760.13;;;21.78;71.95
80198;BME280;69517;52.030;7.106;2023-05-07T01:52:15;100749.19;;;21.72;72.01
80198;BME280;69517;52.030;7.106;2023-05-07T01:54:41;100745.53;;;21.74;72.08
80198;BME280;69517;52.030;7.106;2023-05-07T01:57:09;100757.00;;;21.73;72.00
80198;BME280;69517;52.030;7.106;2023-05-07T01:59:35;100754.16;;;21.76;71.66
80198;BME280;69517;52.030;7.106;2023-05-07T02:02:01;100757.63;;;21.77;71.67
80198;BME280;69517;52.030;7.106;2023-05-07T02:04:27;100763.19;;;21.72;72.19
80198;BME280;69517;52.030;7.106;2023-05-07T02:06:54;100766.56;;;21.74;71.53
80198;BME280;69517;52.030;7.106;2023-05-07T02:09:20;100770.56;;;21.80;71.31
80198;BME280;69517;52.030;7.106;2023-05-07T02:11:47;100769.31;;;21.73;72.04
80198;BME280;69517;52.030;7.106;2023-05-07T02:14:15;100765.13;;;21.70;71.88
80198;BME280;69517;52.030;7.106;2023-05-07T02:16:41;100761.75;;;21.68;72.21
80198;BME280;69517;52.030;7.106;2023-05-07T02:19:08;100772.16;;;21.70;71.88
80198;BME280;69517;52.030;7.106;2023-05-07T02:21:34;100767.84;;;21.69;72.15
80198;BME280;69517;52.030;7.106;2023-05-07T02:24:00;100772.03;;;21.71;71.80
80198;BME280;69517;52.030;7.106;2023-05-07T02:26:26;100764.47;;;21.67;72.29
80198;BME280;69517;52.030;7.106;2023-05-07T02:28:53;100752.91;;;21.69;72.00
80198;BME280;69517;52.030;7.106;2023-05-07T02:31:21;100751.81;;;21.72;71.76
80198;BME280;69517;52.030;7.106;2023-05-07T02:33:47;100757.84;;;21.74;71.62
80198;BME280;69517;52.030;7.106;2023-05-07T02:36:13;100754.59;;;21.70;71.75
80198;BME280;69517;52.030;7.106;2023-05-07T02:38:39;100754.69;;;21.69;71.64
80198;BME280;69517;52.030;7.106;2023-05-07T02:41:06;100758.06;;;21.71;71.78
80198;BME280;69517;52.030;7.106;2023-05-07T02:43:32;100757.50;;;21.66;72.00
80198;BME280;69517;52.030;7.106;2023-05-07T02:46:02;100755.44;;;21.71;71.44
80198;BME280;69517;52.030;7.106;2023-05-07T02:48:29;100753.75;;;21.70;71.84
80198;BME280;69517;52.030;7.106;2023-05-07T02:50:56;100752.06;;;21.69;71.79
80198;BME280;69517;52.030;7.106;2023-05-07T02:53:22;100753.94;;;21.67;72.00
80198;BME280;69517;52.030;7.106;2023-05-07T02:55:50;100756.47;;;21.68;71.79
80198;BME280;69517;52.030;7.106;2023-05-07T02:58:17;100754.69;;;21.69;71.66
80198;BME280;69517;52.030;7.106;2023-05-07T03:00:43;100758.25;;;21.68;71.97
80198;BME280;69517;52.030;7.106;2023-05-07T03:03:09;100751.81;;;21.72;71.29
80198;BME280;69517;52.030;7.106;2023-05-07T03:05:37;100761.13;;;21.65;72.08
80198;BME280;69517;52.030;7.106;2023-05-07T03:08:03;100759.44;;;21.64;71.95
80198;BME280;69517;52.030;7.106;2023-05-07T03:10:30;100749.31;;;21.70;71.45
80198;BME280;69517;52.030;7.106;2023-05-07T03:12:56;100755.53;;;21.69;71.55
80198;BME280;69517;52.030;7.106;2023-05-07T03:15:22;100755.31;;;21.72;71.13
80198;BME280;69517;52.030;7.106;2023-05-07T03:17:48;100758.16;;;21.69;71.39
80198;BME280;69517;52.030;7.106;2023-05-07T03:20:15;100772.25;;;21.68;71.85
80198;BME280;69517;52.030;7.106;2023-05-07T03:22:42;100760.56;;;21.72;71.28
80198;BME280;69517;52.030;7.106;2023-05-07T03:25:09;100764.47;;;21.67;71.53
80198;BME280;69517;52.030;7.106;2023-05-07T03:27:35;100754.69;;;21.69;71.69
80198;BME280;69517;52.030;7.106;2023-05-07T03:30:02;100763.00;;;21.63;72.04
80198;BME280;69517;52.030;7.106;2023-05-07T03:32:28;100765.75;;;21.61;71.89
80198;BME280;69517;52.030;7.106;2023-05-07T03:34:54;100764.47;;;21.67;71.68
80198;BME280;69517;52.030;7.106;2023-05-07T03:37:20;100768.28;;;21.63;71.80
80198;BME280;69517;52.030;7.106;2023-05-07T03:39:48;100762.91;;;21.64;71.60
80198;BME280;69517;52.030;7.106;2023-05-07T03:42:15;100767.00;;;21.68;71.63
80198;BME280;69517;52.030;7.106;2023-05-07T03:44:41;100766.59;;;21.62;71.73
80198;BME280;69517;52.030;7.106;2023-05-07T03:47:07;100768.78;;;21.68;71.17
80198;BME280;69517;52.030;7.106;2023-05-07T03:49:35;100768.88;;;21.66;71.43
80198;BME280;69517;52.030;7.106;2023-05-07T03:52:01;100772.69;;;21.62;72.14
80198;BME280;69517;52.030;7.106;2023-05-07T03:54:27;100770.81;;;21.64;71.43
80198;BME280;69517;52.030;7.106;2023-05-07T03:56:55;100775.75;;;21.69;71.25
80198;BME280;69517;52.030;7.106;2023-05-07T03:59:21;100784.56;;;21.68;71.61
80198;BME280;69517;52.030;7.106;2023-05-07T04:01:48;100781.31;;;21.64;71.68
80198;BME280;69517;52.030;7.106;2023-05-07T04:04:14;100787.00;;;21.71;70.89
80198;BME280;69517;52.030;7.106;2023-05-07T04:06:40;100786.25;;;21.69;71.39
80198;BME280;69517;52.030;7.106;2023-05-07T04:09:07;100783.41;;;21.59;71.89
80198;BME280;69517;52.030;7.106;2023-05-07T04:11:34;100772.38;;;21.67;71.40
80198;BME280;69517;52.030;7.106;2023-05-07T04:14:02;100776.59;;;21.69;71.10
80198;BME280;69517;52.030;7.106;2023-05-07T04:16:28;100775.22;;;21.64;71.54
80198;BME280;69517;52.030;7.106;2023-05-07T04:18:54;100781.19;;;21.66;71.40
80198;BME280;69517;52.030;7.106;2023-05-07T04:21:20;100776.91;;;21.65;71.11
80198;BME280;69517;52.030;7.106;2023-05-07T04:23:47;100775.31;;;21.62;71.53
80198;BME280;69517;52.030;7.106;2023-05-07T04:26:14;100778.78;;;21.63;71.28
80198;BME280;69517;52.030;7.106;2023-05-07T04:28:40;100780.78;;;21.59;71.67
80198;BME280;69517;52.030;7.106;2023-05-07T04:31:08;100777.00;;;21.63;71.53
80198;BME280;69517;52.030;7.106;2023-05-07T04:33:34;100781.31;;;21.64;71.54
80198;BME280;69517;52.030;7.106;2023-05-07T04:36:01;100772.38;;;21.67;71.29
80198;BME280;69517;52.030;7.106;2023-05-07T04:38:28;100764.69;;;21.64;71.54
80198;BME280;69517;52.030;7.106;2023-05-07T04:40:55;100760.38;;;21.63;71.37
80198;BME280;69517;52.030;7.106;2023-05-07T04:43:22;100770.66;;;21.66;71.34
80198;BME280;69517;52.030;7.106;2023-05-07T04:45:49;100772.47;;;21.65;71.39
80198;BME280;69517;52.030;7.106;2023-05-07T04:48:17;100768.78;;;21.68;70.87
80198;BME280;69517;52.030;7.106;2023-05-07T04:50:44;100774.78;;;21.70;70.82
80198;BME280;69517;52.030;7.106;2023-05-07T04:53:10;100777.63;;;21.67;71.04
80198;BME280;69517;52.030;7.106;2023-05-07T04:55:36;100778.78;;;21.63;71.39
80198;BME280;69517;52.030;7.106;2023-05-07T04:58:03;100785.22;;;21.59;71.41
80198;BME280;69517;52.030;7.106;2023-05-07T05:00:30;100789.50;;;21.60;71.39
80198;BME280;69517;52.030;7.106;2023-05-07T05:02:56;100785.50;;;21.67;70.94
80198;BME280;69517;52.030;7.106;2023-05-07T05:05:24;100785.00;;;21.62;71.23
80198;BME280;69517;52.030;7.106;2023-05-07T05:07:50;100787.84;;;21.59;71.58
80198;BME280;69517;52.030;7.106;2023-05-07T05:10:18;100791.63;;;21.67;71.01
80198;BME280;69517;52.030;7.106;2023-05-07T05:12:44;100797.63;;;21.57;71.57
80198;BME280;69517;52.030;7.106;2023-05-07T05:15:10;100803.75;;;21.57;71.59
80198;BME280;69517;52.030;7.106;2023-05-07T05:17:37;100807.09;;;21.59;71.16
80198;BME280;69517;52.030;7.106;2023-05-07T05:20:03;100807.22;;;21.58;71.60
80198;BME280;69517;52.030;7.106;2023-05-07T05:22:32;100801.81;;;21.59;71.21
80198;BME280;69517;52.030;7.106;2023-05-07T05:24:58;100805.44;;;21.58;71.40
80198;BME280;69517;52.030;7.106;2023-05-07T05:27:25;100807.22;;;21.58;71.40
80198;BME280;69517;52.030;7.106;2023-05-07T05:29:51;100803.75;;;21.57;71.47
80198;BME280;69517;52.030;7.106;2023-05-07T05:32:18;100803.09;;;21.66;70.88
80198;BME280;69517;52.030;7.106;2023-05-07T05:34:44;100809.44;;;21.64;71.14
80198;BME280;69517;52.030;7.106;2023-05-07T05:37:10;100814.56;;;20.61;73.36
80198;BME280;69517;52.030;7.106;2023-05-07T05:39:38;100818.09;;;19.76;76.98
80198;BME280;69517;52.030;7.106;2023-05-07T05:42:04;100812.34;;;19.41;78.49
80198;BME280;69517;52.030;7.106;2023-05-07T05:44:31;100816.34;;;19.33;78.91
80198;BME280;69517;52.030;7.106;2023-05-07T05:46:57;100818.50;;;19.26;79.42
80198;BME280;69517;52.030;7.106;2023-05-07T05:49:24;100819.44;;;19.98;76.48
80198;BME280;69517;52.030;7.106;2023-05-07T05:51:50;100822.16;;;20.51;75.04
80198;BME280;69517;52.030;7.106;2023-05-07T05:54:16;100823.88;;;20.79;73.90
80198;BME280;69517;52.030;7.106;2023-05-07T05:56:44;100830.66;;;20.96;73.60
80198;BME280;69517;52.030;7.106;2023-05-07T05:59:10;100826.91;;;21.13;72.89
80198;BME280;69517;52.030;7.106;2023-05-07T06:01:36;100827.81;;;21.26;72.06
80198;BME280;69517;52.030;7.106;2023-05-07T06:04:03;100833.91;;;21.26;72.26
80198;BME280;69517;52.030;7.106;2023-05-07T06:06:29;100828.34;;;21.31;72.23
80198;BME280;69517;52.030;7.106;2023-05-07T06:08:57;100826.88;;;21.27;72.46
80198;BME280;69517;52.030;7.106;2023-05-07T06:11:23;100821.28;;;21.31;72.33
80198;BME280;69517;52.030;7.106;2023-05-07T06:13:51;100831.81;;;21.31;72.67
80198;BME280;69517;52.030;7.106;2023-05-07T06:16:17;100835.59;;;21.27;73.29
80198;BME280;69517;52.030;7.106;2023-05-07T06:18:44;100832.22;;;21.25;73.97
80198;BME280;69517;52.030;7.106;2023-05-07T06:21:11;100835.59;;;21.27;74.17
80198;BME280;69517;52.030;7.106;2023-05-07T06:23:37;100848.94;;;21.24;74.45
80198;BME280;69517;52.030;7.106;2023-05-07T06:26:05;100845.59;;;21.35;73.96
80198;BME280;69517;52.030;7.106;2023-05-07T06:28:32;100846.75;;;21.43;72.93
80198;BME280;69517;52.030;7.106;2023-05-07T06:31:11;100853.28;;;21.38;73.28
80198;BME280;69517;52.030;7.106;2023-05-07T06:33:38;100854.63;;;21.31;73.95
80198;BME280;69517;52.030;7.106;2023-05-07T06:36:04;100855.47;;;21.31;74.04
80198;BME280;69517;52.030;7.106;2023-05-07T06:38:31;100855.69;;;21.28;74.45
80198;BME280;69517;52.030;7.106;2023-05-07T06:40:57;100851.91;;;21.32;73.99
80198;BME280;69517;52.030;7.106;2023-05-07T06:43:23;100856.22;;;21.33;73.93
80198;BME280;69517;52.030;7.106;2023-05-07T06:45:50;100857.91;;;21.47;73.06
80198;BME280;69517;52.030;7.106;2023-05-07T06:48:17;100853.31;;;21.51;72.55
80198;BME280;69517;52.030;7.106;2023-05-07T06:50:43;100858.13;;;21.44;73.54
80198;BME280;69517;52.030;7.106;2023-05-07T06:53:10;100856.94;;;21.35;73.49
80198;BME280;69517;52.030;7.106;2023-05-07T06:55:36;100862.53;;;21.43;73.40
80198;BME280;69517;52.030;7.106;2023-05-07T06:58:03;100859.50;;;21.50;72.68
80198;BME280;69517;52.030;7.106;2023-05-07T07:00:29;100860.25;;;21.52;72.83
80198;BME280;69517;52.030;7.106;2023-05-07T07:02:56;100865.38;;;21.53;72.67
80198;BME280;69517;52.030;7.106;2023-05-07T07:05:23;100859.31;;;21.53;72.77
80198;BME280;69517;52.030;7.106;2023-05-07T07:07:50;100858.56;;;21.51;72.79
80198;BME280;69517;52.030;7.106;2023-05-07T07:10:17;100865.00;;;21.47;73.31
80198;BME280;69517;52.030;7.106;2023-05-07T07:12:44;100865.69;;;21.49;73.56
80198;BME280;69517;52.030;7.106;2023-05-07T07:15:10;100871.38;;;21.42;73.73
80198;BME280;69517;52.030;7.106;2023-05-07T07:17:36;100868.44;;;21.34;74.29
80198;BME280;69517;52.030;7.106;2023-05-07T07:20:03;100867.38;;;21.37;74.28
80198;BME280;69517;52.030;7.106;2023-05-07T07:22:31;100871.16;;;21.33;74.32
80198;BME280;69517;52.030;7.106;2023-05-07T07:24:57;100871.34;;;21.30;74.78
80198;BME280;69517;52.030;7.106;2023-05-07T07:27:23;100875.16;;;21.38;74.75
80198;BME280;69517;52.030;7.106;2023-05-07T07:29:49;100865.59;;;21.37;74.26
80198;BME280;69517;52.030;7.106;2023-05-07T07:32:16;100872.72;;;21.35;74.04
80198;BME280;69517;52.030;7.106;2023-05-07T07:34:42;100866.75;;;21.33;74.72
80198;BME280;69517;52.030;7.106;2023-05-07T07:37:08;100869.69;;;21.41;73.89
80198;BME280;69517;52.030;7.106;2023-05-07T07:39:36;100869.69;;;21.41;74.00
80198;BME280;69517;52.030;7.106;2023-05-07T07:42:02;100870.31;;;21.32;74.81
80198;BME280;69517;52.030;7.106;2023-05-07T07:44:29;100867.28;;;21.38;74.74
80198;BME280;69517;52.030;7.106;2023-05-07T07:46:55;100873.06;;;21.43;74.35
80198;BME280;69517;52.030;7.106;2023-05-07T07:49:21;100874.34;;;21.51;74.12
80198;BME280;69517;52.030;7.106;2023-05-07T07:51:48;100874.34;;;21.51;73.59
80198;BME280;69517;52.030;7.106;2023-05-07T07:54:14;100871.06;;;21.47;73.78
80198;BME280;69517;52.030;7.106;2023-05-07T07:56:41;100873.69;;;21.47;74.34
80198;BME280;69517;52.030;7.106;2023-05-07T07:59:08;100873.41;;;21.52;73.94
80198;BME280;69517;52.030;7.106;2023-05-07T08:01:34;100871.91;;;21.48;74.43
80198;BME280;69517;52.030;7.106;2023-05-07T08:04:00;100870.78;;;21.52;74.05
80198;BME280;69517;52.030;7.106;2023-05-07T08:06:28;100868.44;;;21.47;74.20
80198;BME280;69517;52.030;7.106;2023-05-07T08:08:54;100873.81;;;21.45;74.29
80198;BME280;69517;52.030;7.106;2023-05-07T08:11:21;100865.00;;;21.47;74.08
80198;BME280;69517;52.030;7.106;2023-05-07T08:13:48;100872.66;;;21.50;73.78
80198;BME280;69517;52.030;7.106;2023-05-07T08:16:15;100872.97;;;21.45;74.19
80198;BME280;69517;52.030;7.106;2023-05-07T08:18:41;100872.75;;;21.48;73.98
80198;BME280;69517;52.030;7.106;2023-05-07T08:21:07;100878.00;;;21.48;73.69
80198;BME280;69517;52.030;7.106;2023-05-07T08:23:34;100882.44;;;21.48;74.28
80198;BME280;69517;52.030;7.106;2023-05-07T08:26:00;100885.63;;;21.53;73.91
80198;BME280;69517;52.030;7.106;2023-05-07T08:28:26;100881.28;;;21.52;73.87
80198;BME280;69517;52.030;7.106;2023-05-07T08:30:54;100878.13;;;21.47;74.33
80198;BME280;69517;52.030;7.106;2023-05-07T08:33:21;100886.56;;;21.52;74.28
80198;BME280;69517;52.030;7.106;2023-05-07T08:35:47;100886.66;;;21.50;73.29
80198;BME280;69517;52.030;7.106;2023-05-07T08:38:14;100885.06;;;21.48;73.99
80198;BME280;69517;52.030;7.106;2023-05-07T08:40:40;100882.13;;;21.52;73.38
80198;BME280;69517;52.030;7.106;2023-05-07T08:43:06;100887.28;;;21.54;73.40
80198;BME280;69517;52.030;7.106;2023-05-07T08:45:33;100884.88;;;21.51;73.77
80198;BME280;69517;52.030;7.106;2023-05-07T08:48:02;100882.44;;;21.48;74.29
80198;BME280;69517;52.030;7.106;2023-05-07T08:50:29;100883.19;;;21.50;74.01
80198;BME280;69517;52.030;7.106;2023-05-07T08:52:55;100887.94;;;21.57;73.74
80198;BME280;69517;52.030;7.106;2023-05-07T08:55:22;100895.72;;;21.59;73.62
80198;BME280;69517;52.030;7.106;2023-05-07T08:57:49;100893.09;;;21.59;73.47
80198;BME280;69517;52.030;7.106;2023-05-07T09:00:15;100889.50;;;21.60;73.34
80198;BME280;69517;52.030;7.106;2023-05-07T09:02:42;100889.72;;;21.57;73.60
80198;BME280;69517;52.030;7.106;2023-05-07T09:05:10;100887.28;;;21.54;73.91
80198;BME280;69517;52.030;7.106;2023-05-07T09:07:36;100887.41;;;21.52;74.11
80198;BME280;69517;52.030;7.106;2023-05-07T09:10:02;100886.16;;;21.58;72.25
80198;BME280;69517;52.030;7.106;2023-05-07T09:12:29;100887.19;;;21.55;73.06
80198;BME280;69517;52.030;7.106;2023-05-07T09:14:55;100888.13;;;21.54;73.49
80198;BME280;69517;52.030;7.106;2023-05-07T09:17:21;100885.81;;;21.50;73.86
80198;BME280;69517;52.030;7.106;2023-05-07T09:19:48;100886.66;;;21.50;74.18
80198;BME280;69517;52.030;7.106;2023-05-07T09:22:16;100887.28;;;21.54;73.48
80198;BME280;69517;52.030;7.106;2023-05-07T09:24:45;100889.91;;;21.54;73.57
80198;BME280;69517;52.030;7.106;2023-05-07T09:27:13;100887.00;;;21.58;72.94
80198;BME280;69517;52.030;7.106;2023-05-07T09:29:39;100885.50;;;21.54;73.55
80198;BME280;69517;52.030;7.106;2023-05-07T09:32:05;100885.50;;;21.67;73.23
80198;BME280;69517;52.030;7.106;2023-05-07T09:34:32;100885.41;;;21.68;73.11
80198;BME280;69517;52.030;7.106;2023-05-07T09:39:40;100894.16;;;21.69;73.01
80198;BME280;69517;52.030;7.106;2023-05-07T09:42:07;100907.41;;;21.67;73.62
80198;BME280;69517;52.030;7.106;2023-05-07T09:44:33;100902.56;;;21.74;73.81
80198;BME280;69517;52.030;7.106;2023-05-07T09:47:00;100894.56;;;21.75;71.81
80198;BME280;69517;52.030;7.106;2023-05-07T09:49:28;100901.72;;;21.73;73.57
80198;BME280;69517;52.030;7.106;2023-05-07T09:51:55;100896.38;;;21.75;73.61
80198;BME280;69517;52.030;7.106;2023-05-07T09:54:22;100905.19;;;21.74;73.27
80198;BME280;69517;52.030;7.106;2023-05-07T09:56:50;100898.34;;;21.71;72.78
80198;BME280;69517;52.030;7.106;2023-05-07T09:59:17;100887.94;;;21.70;72.92
80198;BME280;69517;52.030;7.106;2023-05-07T10:01:44;100896.97;;;21.66;73.67
80198;BME280;69517;52.030;7.106;2023-05-07T10:04:11;100891.63;;;21.67;74.06
80198;BME280;69517;52.030;7.106;2023-05-07T10:06:38;100894.91;;;21.71;73.73
80198;BME280;69517;52.030;7.106;2023-05-07T10:09:04;100898.66;;;21.67;74.21
80198;BME280;69517;52.030;7.106;2023-05-07T10:11:31;100896.25;;;21.64;74.87
80198;BME280;69517;52.030;7.106;2023-05-07T10:13:59;100894.91;;;21.71;74.26
80198;BME280;69517;52.030;7.106;2023-05-07T10:16:27;100900.69;;;21.76;73.34
80198;BME280;69517;52.030;7.106;2023-05-07T10:18:53;100894.91;;;21.71;73.13
80198;BME280;69517;52.030;7.106;2023-05-07T10:21:20;100894.78;;;21.72;73.80
80198;BME280;69517;52.030;7.106;2023-05-07T10:23:48;100892.78;;;21.76;73.56
80198;BME280;69517;52.030;7.106;2023-05-07T10:26:15;100888.25;;;21.78;72.54
80198;BME280;69517;52.030;7.106;2023-05-07T10:28:44;100890.88;;;21.78;73.05
80198;BME280;69517;52.030;7.106;2023-05-07T10:31:18;100892.78;;;21.76;72.36
80198;BME280;69517;52.030;7.106;2023-05-07T10:33:49;100885.94;;;21.73;71.63
80198;BME280;69517;52.030;7.106;2023-05-07T10:36:17;100893.72;;;21.75;71.96
80198;BME280;69517;52.030;7.106;2023-05-07T10:38:43;100905.94;;;21.76;72.37
80198;BME280;69517;52.030;7.106;2023-05-07T10:41:11;100895.63;;;21.73;72.33
80198;BME280;69517;52.030;7.106;2023-05-07T10:43:40;100896.03;;;21.67;73.10
80198;BME280;69517;52.030;7.106;2023-05-07T10:46:11;100895.19;;;21.66;72.72
80198;BME280;69517;52.030;7.106;2023-05-07T10:51:20;100899.50;;;21.67;73.55
80198;BME280;69517;52.030;7.106;2023-05-07T10:53:47;100904.69;;;21.69;73.40
80198;BME280;69517;52.030;7.106;2023-05-07T10:56:26;100903.59;;;21.71;74.02
80198;BME280;69517;52.030;7.106;2023-05-07T10:58:55;100901.94;;;21.70;72.59
80198;BME280;69517;52.030;7.106;2023-05-07T11:04:12;100905.94;;;21.76;74.04
80198;BME280;69517;52.030;7.106;2023-05-07T11:06:40;100909.63;;;21.73;74.63
80198;BME280;69517;52.030;7.106;2023-05-07T11:09:06;100901.41;;;21.78;74.68
80198;BME280;69517;52.030;7.106;2023-05-07T11:11:43;100899.63;;;21.78;74.76
80198;BME280;69517;52.030;7.106;2023-05-07T11:14:10;100901.84;;;21.84;75.45
80198;BME280;69517;52.030;7.106;2023-05-07T11:16:36;100901.53;;;21.89;75.63
80198;BME280;69517;52.030;7.106;2023-05-07T11:19:03;100897.50;;;21.83;75.28
80198;BME280;69517;52.030;7.106;2023-05-07T11:21:33;100896.78;;;21.81;75.47
80198;BME280;69517;52.030;7.106;2023-05-07T11:24:01;100885.50;;;21.79;74.96
80198;BME280;69517;52.030;7.106;2023-05-07T11:26:28;100887.53;;;21.76;74.85
80198;BME280;69517;52.030;7.106;2023-05-07T11:28:56;100889.41;;;21.74;75.19
80198;BME280;69517;52.030;7.106;2023-05-07T11:31:24;100887.72;;;21.73;74.22
80198;BME280;69517;52.030;7.106;2023-05-07T11:33:51;100888.78;;;21.70;73.25
80198;BME280;69517;52.030;7.106;2023-05-07T11:36:18;100885.50;;;21.67;74.75
80198;BME280;69517;52.030;7.106;2023-05-07T11:38:45;100886.03;;;21.72;73.29
80198;BME280;69517;52.030;7.106;2023-05-07T11:41:13;100890.56;;;21.70;72.19
80198;BME280;69517;52.030;7.106;2023-05-07T11:43:53;100897.72;;;21.68;74.05
80198;BME280;69517;52.030;7.106;2023-05-07T11:46:19;100899.19;;;21.72;73.57
80198;BME280;69517;52.030;7.106;2023-05-07T11:48:46;100896.03;;;21.67;73.96
80198;BME280;69517;52.030;7.106;2023-05-07T11:51:13;100892.88;;;21.62;73.68
80198;BME280;69517;52.030;7.106;2023-05-07T11:53:44;100892.69;;;21.65;73.93
80198;BME280;69517;52.030;7.106;2023-05-07T11:56:13;100896.88;;;21.67;73.83
80198;BME280;69517;52.030;7.106;2023-05-07T11:58:39;100894.91;;;21.71;74.09
80198;BME280;69517;52.030;7.106;2023-05-07T12:01:07;100894.16;;;21.69;74.33
80198;BME280;69517;52.030;7.106;2023-05-07T12:03:34;100892.28;;;21.71;73.70
80198;BME280;69517;52.030;7.106;2023-05-07T12:06:01;100908.88;;;21.71;73.79
80198;BME280;69517;52.030;7.106;2023-05-07T12:08:27;100903.59;;;21.71;74.24
80198;BME280;69517;52.030;7.106;2023-05-07T12:10:54;100896.47;;;21.73;73.55
80198;BME280;69517;52.030;7.106;2023-05-07T12:13:23;100899.19;;;21.72;74.03
80198;BME280;69517;52.030;7.106;2023-05-07T12:15:50;100901.72;;;21.73;73.77
80198;BME280;69517;52.030;7.106;2023-05-07T12:18:16;100900.03;;;21.72;73.40
80198;BME280;69517;52.030;7.106;2023-05-07T12:20:42;100890.69;;;21.68;73.84
80198;BME280;69517;52.030;7.106;2023-05-07T12:23:10;100890.34;;;21.73;73.44
80198;BME280;69517;52.030;7.106;2023-05-07T12:25:37;100895.72;;;21.71;74.13
80198;BME280;69517;52.030;7.106;2023-05-07T12:28:04;100886.25;;;21.69;73.96
80198;BME280;69517;52.030;7.106;2023-05-07T12:30:32;100890.44;;;21.71;73.33
80198;BME280;69517;52.030;7.106;2023-05-07T12:32:58;100897.63;;;21.69;73.20
80198;BME280;69517;52.030;7.106;2023-05-07T12:35:28;100893.22;;;21.70;73.94
80198;BME280;69517;52.030;7.106;2023-05-07T12:37:54;100892.47;;;21.68;74.28
80198;BME280;69517;52.030;7.106;2023-05-07T12:40:21;100896.03;;;21.79;73.70
80198;BME280;69517;52.030;7.106;2023-05-07T12:42:47;100891.44;;;21.83;73.62
80198;BME280;69517;52.030;7.106;2023-05-07T12:45:18;100895.84;;;21.82;73.85
80198;BME280;69517;52.030;7.106;2023-05-07T12:47:46;100888.25;;;21.78;73.65
80198;BME280;69517;52.030;7.106;2023-05-07T12:50:13;100892.03;;;21.74;73.80
80198;BME280;69517;52.030;7.106;2023-05-07T12:52:40;100900.16;;;21.71;74.12
80198;BME280;69517;52.030;7.106;2023-05-07T12:55:07;100897.94;;;21.77;74.45
80198;BME280;69517;52.030;7.106;2023-05-07T12:57:37;100887.31;;;21.79;74.28